createdAt,value
2022-11-05T00:01:03.971Z,100772.69
2022-11-05T00:03:45.731Z,100773.56
2022-11-05T00:06:31.141Z,100775.38
2022-11-05T00:09:17.622Z,100780.75
2022-11-05T00:12:02.781Z,100786.03
2022-11-05T00:14:50.258Z,100789.63
2022-11-05T00:17:17.967Z,100786.22
2022-11-05T00:19:45.703Z,100794.03
2022-11-05T00:22:30.777Z,100795.81
2022-11-05T00:25:17.870Z,100796.63
2022-11-05T00:27:47.031Z,100797.50
2022-11-05T00:30:18.255Z,100801.81
2022-11-05T00:32:50.076Z,100801.84
2022-11-05T00:35:20.653Z,100809.69
2022-11-05T00:37:50.386Z,100809.72
2022-11-05T00:40:20.189Z,100807.94
2022-11-05T00:43:05.262Z,100814.09
2022-11-05T00:45:33.084Z,100816.69
2022-11-05T00:48:18.466Z,100827.16
2022-11-05T00:50:46.049Z,100837.56
2022-11-05T00:53:14.196Z,100831.47
2022-11-05T00:55:45.193Z,100834.94
2022-11-05T00:58:14.821Z,100846.31
2022-11-05T01:00:44.086Z,100849.78
2022-11-05T01:03:14.185Z,100842.84
2022-11-05T01:05:43.971Z,100854.16
2022-11-05T01:08:12.540Z,100862.03
2022-11-05T01:10:46.266Z,100865.56
2022-11-05T01:13:17.330Z,100856.88
2022-11-05T01:15:46.046Z,100864.72
2022-11-05T01:18:14.141Z,100867.38
2022-11-05T01:20:42.065Z,100868.28
2022-11-05T01:23:13.589Z,100870.03
2022-11-05T01:25:42.216Z,100869.19
2022-11-05T01:28:11.946Z,100872.69
2022-11-05T01:30:40.235Z,100871.88
2022-11-05T01:33:08.321Z,100874.47
2022-11-05T01:35:36.198Z,100883.16
2022-11-05T01:38:03.962Z,100878.81
2022-11-05T01:40:31.709Z,100878.81
2022-11-05T01:42:59.549Z,100883.19
2022-11-05T01:45:29.192Z,100885.84
2022-11-05T01:48:02.108Z,100899.72
2022-11-05T01:50:34.924Z,100898.00
2022-11-05T01:53:09.300Z,100900.63
2022-11-05T01:55:40.933Z,100904.94
2022-11-05T01:58:13.182Z,100906.69
2022-11-05T02:00:43.452Z,100905.84
2022-11-05T02:03:15.643Z,100906.72
2022-11-05T02:05:44.212Z,100908.47
2022-11-05T02:08:20.202Z,100908.50
2022-11-05T02:10:48.846Z,100910.22
2022-11-05T02:13:16.510Z,100918.06
2022-11-05T02:15:55.849Z,100905.94
2022-11-05T02:18:35.605Z,100910.25
2022-11-05T02:21:23.135Z,100920.66
2022-11-05T02:24:01.302Z,100925.03
2022-11-05T02:26:51.184Z,100933.69
2022-11-05T02:29:52.987Z,100925.91
2022-11-05T02:32:34.569Z,100928.53
2022-11-05T02:35:13.551Z,100930.22
2022-11-05T02:37:45.576Z,100926.78
2022-11-05T02:40:23.246Z,100920.69
2022-11-05T02:43:00.648Z,100927.66
2022-11-05T02:45:41.572Z,100926.78
2022-11-05T02:48:21.943Z,100937.19
2022-11-05T02:50:55.274Z,100931.97
2022-11-05T02:53:34.902Z,100931.09
2022-11-05T02:56:06.804Z,100935.44
2022-11-05T02:58:35.548Z,100938.91
2022-11-05T03:01:06.815Z,100931.97
2022-11-05T03:03:40.007Z,100933.72
2022-11-05T03:06:52.145Z,100933.69
2022-11-05T03:09:34.068Z,100930.25
2022-11-05T03:12:12.267Z,100925.91
2022-11-05T03:14:46.337Z,100931.09
2022-11-05T03:17:26.789Z,100931.13
2022-11-05T03:20:08.493Z,100922.47
2022-11-05T03:22:41.986Z,100928.50
2022-11-05T03:25:16.550Z,100936.28
2022-11-05T03:27:48.195Z,100940.66
2022-11-05T03:30:19.558Z,100944.09
2022-11-05T03:32:51.919Z,100946.72
2022-11-05T03:35:25.075Z,100945.84
2022-11-05T03:37:58.577Z,100941.50
2022-11-05T03:40:29.166Z,100940.66
2022-11-05T03:42:59.320Z,100947.56
2022-11-05T03:45:31.982Z,100947.56
2022-11-05T03:48:02.746Z,100956.22
2022-11-05T03:50:41.294Z,100947.56
2022-11-05T03:53:14.923Z,100953.63
2022-11-05T03:55:49.572Z,100956.25
2022-11-05T03:58:19.611Z,100952.78
2022-11-05T04:00:48.981Z,100970.13
2022-11-05T04:03:16.730Z,100970.13
2022-11-05T04:06:05.937Z,100976.19
2022-11-05T04:08:51.468Z,100979.66
2022-11-05T04:11:36.818Z,100971.00
2022-11-05T04:14:04.580Z,100979.66
2022-11-05T04:16:49.527Z,100985.72
2022-11-05T04:19:37.465Z,100978.81
2022-11-05T04:22:24.263Z,100995.25
2022-11-05T04:24:51.965Z,100984.84
2022-11-05T04:27:19.744Z,100983.13
2022-11-05T04:30:01.431Z,100982.25
2022-11-05T04:32:29.247Z,100987.44
2022-11-05T04:34:57.014Z,100993.53
2022-11-05T04:37:26.400Z,100990.94
2022-11-05T04:39:54.071Z,100994.41
2022-11-05T04:42:21.815Z,100997.84
2022-11-05T04:44:49.515Z,101002.19
2022-11-05T04:47:17.351Z,100995.22
2022-11-05T04:49:45.233Z,101003.88
2022-11-05T04:52:12.985Z,101008.19
2022-11-05T04:54:42.165Z,101005.59
2022-11-05T04:57:10.040Z,100999.50
2022-11-05T04:59:38.037Z,101002.94
2022-11-05T05:02:05.836Z,101002.06
2022-11-05T05:04:33.711Z,101006.38
2022-11-05T05:07:01.567Z,101001.16
2022-11-05T05:09:29.336Z,101004.63
2022-11-05T05:11:58.412Z,101003.75
2022-11-05T05:14:26.172Z,101005.44
2022-11-05T05:16:53.873Z,101010.63
2022-11-05T05:19:21.624Z,101017.56
2022-11-05T05:21:48.337Z,101013.19
2022-11-05T05:24:18.592Z,101014.88
2022-11-05T05:26:48.645Z,101015.78
2022-11-05T05:29:18.439Z,101009.75
2022-11-05T05:31:46.563Z,101014.03
2022-11-05T05:34:15.694Z,101020.94
2022-11-05T05:36:43.496Z,101019.16
2022-11-05T05:39:11.772Z,101027.81
2022-11-05T05:41:39.503Z,101032.16
2022-11-05T05:44:07.807Z,101028.66
2022-11-05T05:46:36.887Z,101024.34
2022-11-05T05:49:09.591Z,101025.19
2022-11-05T05:51:38.870Z,101022.59
2022-11-05T05:54:06.722Z,101037.34
2022-11-05T05:56:34.444Z,101046.00
2022-11-05T05:59:02.175Z,101040.81
2022-11-05T06:01:29.951Z,101043.38
2022-11-05T06:03:59.050Z,101049.44
2022-11-05T06:06:27.082Z,101049.38
2022-11-05T06:08:55.967Z,101056.34
2022-11-05T06:11:24.214Z,101062.44
2022-11-05T06:13:52.077Z,101054.66
2022-11-05T06:16:20.366Z,101063.31
2022-11-05T06:18:48.507Z,101072.81
2022-11-05T06:21:18.792Z,101071.94
2022-11-05T06:23:48.266Z,101071.03
2022-11-05T06:26:18.331Z,101063.19
2022-11-05T06:28:46.984Z,101072.66
2022-11-05T06:31:15.955Z,101068.28
2022-11-05T06:33:43.686Z,101069.97
2022-11-05T06:36:15.567Z,101066.50
2022-11-05T06:38:44.942Z,101074.28
2022-11-05T06:41:13.004Z,101071.66
2022-11-05T06:43:41.474Z,101073.38
2022-11-05T06:46:10.888Z,101091.53
2022-11-05T06:48:38.963Z,101092.38
2022-11-05T06:51:07.518Z,101102.72
2022-11-05T06:53:35.782Z,101105.41
2022-11-05T06:56:06.096Z,101110.56
2022-11-05T06:58:34.406Z,101106.28
2022-11-05T07:01:03.201Z,101116.72
2022-11-05T07:03:31.569Z,101116.81
2022-11-05T07:06:00.893Z,101116.06
2022-11-05T07:08:31.071Z,101119.66
2022-11-05T07:10:58.928Z,101124.00
2022-11-05T07:13:28.259Z,101132.63
2022-11-05T07:15:56.517Z,101131.69
2022-11-05T07:18:24.480Z,101133.41
2022-11-05T07:20:52.255Z,101121.47
2022-11-05T07:23:20.019Z,101136.41
2022-11-05T07:25:47.718Z,101132.19
2022-11-05T07:28:15.445Z,101132.25
2022-11-05T07:30:45.198Z,101133.22
2022-11-05T07:33:13.241Z,101137.56
2022-11-05T07:35:41.378Z,101141.03
2022-11-05T07:38:12.133Z,101144.47
2022-11-05T07:40:39.839Z,101140.97
2022-11-05T07:43:07.647Z,101153.16
2022-11-05T07:45:35.342Z,101147.91
2022-11-05T07:48:05.815Z,101147.84
2022-11-05T07:50:36.082Z,101150.28
2022-11-05T07:53:05.514Z,101156.91
2022-11-05T07:55:34.055Z,101154.28
2022-11-05T07:58:01.775Z,101159.47
2022-11-05T08:00:29.792Z,101159.44
2022-11-05T08:03:06.850Z,101167.34
2022-11-05T08:05:38.940Z,101171.47
2022-11-05T08:08:08.357Z,101176.66
2022-11-05T08:10:37.298Z,101174.22
2022-11-05T08:13:06.301Z,101174.56
2022-11-05T08:15:34.867Z,101176.13
2022-11-05T08:18:04.041Z,101175.88
2022-11-05T08:20:32.332Z,101186.47
2022-11-05T08:23:01.355Z,101180.09
2022-11-05T08:25:29.477Z,101179.06
2022-11-05T08:27:57.990Z,101187.00
2022-11-05T08:30:26.052Z,101184.88
2022-11-05T08:32:58.166Z,101180.47
2022-11-05T08:35:26.458Z,101184.94
2022-11-05T08:37:58.370Z,101191.69
2022-11-05T08:40:28.073Z,101189.91
2022-11-05T08:42:57.753Z,101192.94
2022-11-05T08:45:25.782Z,101191.06
2022-11-05T08:47:59.733Z,101192.59
2022-11-05T08:50:27.487Z,101197.06
2022-11-05T08:52:55.368Z,101196.31
2022-11-05T08:55:23.121Z,101199.88
2022-11-05T08:57:58.040Z,101197.78
2022-11-05T09:00:26.122Z,101204.38
2022-11-05T09:02:53.876Z,101204.19
2022-11-05T09:05:21.816Z,101201.78
2022-11-05T09:07:49.778Z,101193.66
2022-11-05T09:10:17.790Z,101205.97
2022-11-05T09:12:45.587Z,101197.75
2022-11-05T09:15:14.910Z,101201.97
2022-11-05T09:17:42.747Z,101195.38
2022-11-05T09:20:12.828Z,101198.72
2022-11-05T09:22:43.258Z,101205.25
2022-11-05T09:25:11.745Z,101210.22
2022-11-05T09:27:39.531Z,101199.81
2022-11-05T09:30:08.411Z,101201.16
2022-11-05T09:32:37.638Z,101203.09
2022-11-05T09:35:06.499Z,101204.03
2022-11-05T09:37:34.328Z,101201.47
2022-11-05T09:40:02.043Z,101200.88
2022-11-05T09:42:32.689Z,101201.06
2022-11-05T09:45:04.710Z,101204.19
2022-11-05T09:47:37.806Z,101210.50
2022-11-05T09:50:10.070Z,101220.25
2022-11-05T09:52:37.815Z,101211.41
2022-11-05T09:55:15.602Z,101214.00
2022-11-05T09:57:47.091Z,101217.13
2022-11-05T10:00:17.483Z,101213.72
2022-11-05T10:02:51.134Z,101211.06
2022-11-05T10:05:21.734Z,101215.31
2022-11-05T10:07:54.029Z,101212.66
2022-11-05T10:10:42.884Z,101211.44
2022-11-05T10:13:21.811Z,101210.28
2022-11-05T10:15:56.584Z,101221.91
2022-11-05T10:18:29.138Z,101220.06
2022-11-05T10:20:58.411Z,101217.16
2022-11-05T10:23:28.621Z,101226.41
2022-11-05T10:26:00.365Z,101211.59
2022-11-05T10:28:31.546Z,101216.72
2022-11-05T10:31:01.678Z,101217.34
2022-11-05T10:33:33.841Z,101228.06
2022-11-05T10:36:06.443Z,101226.13
2022-11-05T10:38:34.703Z,101220.94
2022-11-05T10:41:29.897Z,101233.50
2022-11-05T10:44:04.919Z,101232.00
2022-11-05T10:46:40.677Z,101230.25
2022-11-05T10:49:22.148Z,101229.03
2022-11-05T10:51:56.731Z,101242.03
2022-11-05T10:54:31.327Z,101235.75
2022-11-05T10:56:59.180Z,101227.53
2022-11-05T10:59:29.035Z,101232.78
2022-11-05T11:02:00.684Z,101237.94
2022-11-05T11:04:36.489Z,101240.22
2022-11-05T11:07:06.893Z,101236.50
2022-11-05T11:09:37.547Z,101244.09
2022-11-05T11:12:08.525Z,101231.44
2022-11-05T11:14:36.326Z,101234.28
2022-11-05T11:17:27.667Z,101229.78
2022-11-05T11:20:20.365Z,101227.06
2022-11-05T11:23:00.866Z,101224.53
2022-11-05T11:25:31.213Z,101227.13
2022-11-05T11:28:04.633Z,101224.84
2022-11-05T11:30:33.730Z,101214.34
2022-11-05T11:33:10.406Z,101214.06
2022-11-05T11:35:40.031Z,101212.50
2022-11-05T11:38:16.496Z,101217.50
2022-11-05T11:40:44.822Z,101217.69
2022-11-05T11:43:25.091Z,101213.69
2022-11-05T11:45:57.339Z,101215.59
2022-11-05T11:48:30.657Z,101211.41
2022-11-05T11:50:59.504Z,101218.16
2022-11-05T11:53:34.171Z,101219.53
2022-11-05T11:56:14.928Z,101214.94
2022-11-05T11:58:48.853Z,101219.47
2022-11-05T12:01:54.178Z,101222.75
2022-11-05T12:04:45.168Z,101213.94
2022-11-05T12:07:25.062Z,101214.78
2022-11-05T12:10:04.219Z,101214.06
2022-11-05T12:12:40.194Z,101207.38
2022-11-05T12:15:30.445Z,101212.34
2022-11-05T12:18:03.379Z,101212.28
2022-11-05T12:20:58.242Z,101197.34
2022-11-05T12:23:57.271Z,101198.66
2022-11-05T12:26:35.774Z,101203.19
2022-11-05T12:29:30.091Z,101204.75
2022-11-05T12:32:29.396Z,101196.75
2022-11-05T12:35:06.564Z,101206.00
2022-11-05T12:37:38.383Z,101200.78
2022-11-05T12:40:30.109Z,101206.66
2022-11-05T12:43:12.067Z,101211.72
2022-11-05T12:45:48.198Z,101208.22
2022-11-05T12:48:35.818Z,101205.16
2022-11-05T12:51:16.565Z,101201.72
2022-11-05T12:54:01.467Z,101200.84
2022-11-05T12:56:35.696Z,101197.41
2022-11-05T12:59:12.594Z,101195.84
2022-11-05T13:01:44.461Z,101188.66
2022-11-05T13:04:18.693Z,101196.13
2022-11-05T13:06:51.209Z,101192.63
2022-11-05T13:09:22.738Z,101185.28
2022-11-05T13:11:54.470Z,101188.03
2022-11-05T13:14:27.839Z,101185.56
2022-11-05T13:17:01.087Z,101180.31
2022-11-05T13:19:32.172Z,101180.56
2022-11-05T13:22:09.403Z,101188.25
2022-11-05T13:24:40.701Z,101176.31
2022-11-05T13:27:21.870Z,101168.25
2022-11-05T13:29:54.122Z,101164.53
2022-11-05T13:32:28.996Z,101167.59
2022-11-05T13:34:57.095Z,101168.97
2022-11-05T13:37:46.231Z,101166.28
2022-11-05T13:40:18.033Z,101167.88
2022-11-05T13:43:02.721Z,101165.03
2022-11-05T13:46:04.410Z,101166.97
2022-11-05T13:48:54.035Z,101176.41
2022-11-05T13:51:49.962Z,101177.34
2022-11-05T13:54:49.012Z,101189.13
2022-11-05T13:57:35.870Z,101173.91
2022-11-05T14:00:12.419Z,101169.66
2022-11-05T14:02:44.637Z,101160.72
2022-11-05T14:05:25.283Z,101160.44
2022-11-05T14:07:54.534Z,101155.19
2022-11-05T14:10:37.851Z,101152.75
2022-11-05T14:13:20.479Z,101159.19
2022-11-05T14:16:02.982Z,101159.97
2022-11-05T14:18:44.630Z,101155.47
2022-11-05T14:21:49.487Z,101153.34
2022-11-05T14:24:43.004Z,101146.44
2022-11-05T14:27:53.582Z,101143.41
2022-11-05T14:30:41.805Z,101141.31
2022-11-05T14:33:30.205Z,101138.22
2022-11-05T14:36:31.928Z,101145.63
2022-11-05T14:39:19.263Z,101135.19
2022-11-05T14:41:59.674Z,101127.09
2022-11-05T14:44:28.616Z,101129.03
2022-11-05T14:46:59.195Z,101133.34
2022-11-05T14:49:29.869Z,101130.81
2022-11-05T14:52:05.582Z,101129.03
2022-11-05T14:54:41.161Z,101122.59
2022-11-05T14:57:12.974Z,101129.69
2022-11-05T15:00:01.892Z,101122.03
2022-11-05T15:02:36.509Z,101128.81
2022-11-05T15:05:39.869Z,101119.16
2022-11-05T15:08:31.746Z,101117.56
2022-11-05T15:11:09.511Z,101128.81
2022-11-05T15:13:43.982Z,101132.69
2022-11-05T15:16:20.315Z,101146.03
2022-11-05T15:18:48.999Z,101143.69
2022-11-05T15:21:20.559Z,101139.31
2022-11-05T15:23:53.744Z,101139.47
2022-11-05T15:26:37.798Z,101133.97
2022-11-05T15:29:18.696Z,101144.75
2022-11-05T15:31:47.254Z,101154.22
2022-11-05T15:34:21.571Z,101152.69
2022-11-05T15:36:53.373Z,101154.34
2022-11-05T15:39:33.243Z,101149.41
2022-11-05T15:42:05.730Z,101145.97
2022-11-05T15:44:39.563Z,101149.66
2022-11-05T15:47:20.459Z,101156.66
2022-11-05T15:49:51.564Z,101161.00
2022-11-05T15:52:21.111Z,101162.78
2022-11-05T15:55:09.532Z,101162.00
2022-11-05T15:57:40.481Z,101161.19
2022-11-05T16:00:17.860Z,101162.84
2022-11-05T16:02:53.580Z,101155.03
2022-11-05T16:05:22.305Z,101149.84
2022-11-05T16:07:50.350Z,101147.41
2022-11-05T16:10:21.916Z,101143.97
2022-11-05T16:12:50.075Z,101147.63
2022-11-05T16:15:23.950Z,101160.66
2022-11-05T16:17:55.241Z,101162.38
2022-11-05T16:20:29.443Z,101157.94
2022-11-05T16:22:58.974Z,101158.88
2022-11-05T16:25:37.361Z,101167.63
2022-11-05T16:28:07.521Z,101165.88
2022-11-05T16:30:35.247Z,101155.44
2022-11-05T16:33:07.900Z,101163.25
2022-11-05T16:35:41.139Z,101158.97
2022-11-05T16:38:13.408Z,101158.13
2022-11-05T16:40:42.723Z,101154.56
2022-11-05T16:43:18.858Z,101163.22
2022-11-05T16:45:46.611Z,101158.94
2022-11-05T16:48:15.705Z,101164.25
2022-11-05T16:50:44.220Z,101162.53
2022-11-05T16:53:12.068Z,101161.63
2022-11-05T16:55:43.190Z,101161.63
2022-11-05T16:58:19.456Z,101169.44
2022-11-05T17:00:47.719Z,101172.16
2022-11-05T17:03:15.473Z,101172.22
2022-11-05T17:05:43.478Z,101173.09
2022-11-05T17:08:11.680Z,101171.41
2022-11-05T17:10:39.727Z,101183.59
2022-11-05T17:13:11.057Z,101178.38
2022-11-05T17:15:38.859Z,101192.31
2022-11-05T17:18:06.937Z,101194.09
2022-11-05T17:20:40.892Z,101187.19
2022-11-05T17:23:10.831Z,101188.13
2022-11-05T17:25:39.542Z,101197.75
2022-11-05T17:28:09.998Z,101195.09
2022-11-05T17:30:41.436Z,101199.47
2022-11-05T17:33:10.103Z,101209.03
2022-11-05T17:35:39.109Z,101205.56
2022-11-05T17:38:06.926Z,101197.84
2022-11-05T17:40:36.427Z,101195.25
2022-11-05T17:43:04.866Z,101195.22
2022-11-05T17:45:34.553Z,101194.38
2022-11-05T17:48:03.257Z,101190.00
2022-11-05T17:50:31.050Z,101190.03
2022-11-05T17:52:58.964Z,101194.44
2022-11-05T17:55:26.834Z,101185.75
2022-11-05T17:57:54.515Z,101185.75
2022-11-05T18:00:24.198Z,101184.91
2022-11-05T18:02:55.204Z,101190.13
2022-11-05T18:05:27.502Z,101188.44
2022-11-05T18:07:56.213Z,101189.28
2022-11-05T18:10:24.961Z,101185.81
2022-11-05T18:12:52.670Z,101193.66
2022-11-05T18:15:20.664Z,101194.50
2022-11-05T18:17:48.807Z,101202.31
2022-11-05T18:20:19.575Z,101192.75
2022-11-05T18:22:49.793Z,101186.66
2022-11-05T18:25:18.391Z,101183.19
2022-11-05T18:27:46.357Z,101187.56
2022-11-05T18:30:15.794Z,101199.69
2022-11-05T18:32:44.716Z,101193.63
2022-11-05T18:35:13.120Z,101193.63
2022-11-05T18:37:42.563Z,101200.59
2022-11-05T18:40:11.657Z,101199.72
2022-11-05T18:42:39.762Z,101192.72
2022-11-05T18:45:08.722Z,101191.06
2022-11-05T18:47:36.760Z,101190.19
2022-11-05T18:50:06.315Z,101191.06
2022-11-05T18:52:34.273Z,101200.63
2022-11-05T18:55:03.493Z,101183.25
2022-11-05T18:57:33.330Z,101190.22
2022-11-05T19:00:01.579Z,101185.91
2022-11-05T19:02:29.598Z,101183.28
2022-11-05T19:07:45.122Z,101180.72
2022-11-05T19:10:14.191Z,101179.00
2022-11-05T19:12:41.982Z,101170.34
2022-11-05T19:15:10.627Z,101167.75
2022-11-05T19:17:38.336Z,101179.88
2022-11-05T19:20:07.877Z,101172.06
2022-11-05T19:22:35.655Z,101170.34
2022-11-05T19:25:03.515Z,101174.69
2022-11-05T19:27:32.631Z,101171.22
2022-11-05T19:30:00.321Z,101168.63
2022-11-05T19:32:28.059Z,101177.31
2022-11-05T19:34:55.798Z,101174.69
2022-11-05T19:37:23.580Z,101167.75
2022-11-05T19:39:51.975Z,101167.75
2022-11-05T19:42:19.722Z,101171.22
2022-11-05T19:44:48.823Z,101166.88
2022-11-05T19:47:17.031Z,101179.03
2022-11-05T19:49:44.696Z,101179.91
2022-11-05T19:52:12.637Z,101176.44
2022-11-05T19:54:40.530Z,101185.97
2022-11-05T19:57:08.328Z,101188.56
2022-11-05T19:59:36.083Z,101188.56
2022-11-05T20:02:05.698Z,101182.47
2022-11-05T20:04:33.659Z,101189.47
2022-11-05T20:07:01.423Z,101190.34
2022-11-05T20:09:29.168Z,101189.50
2022-11-05T20:11:57.137Z,101193.84
2022-11-05T20:14:26.440Z,101195.56
2022-11-05T20:16:54.611Z,101209.47
2022-11-05T20:19:24.338Z,101206.84
2022-11-05T20:21:52.193Z,101212.94
2022-11-05T20:24:25.212Z,101208.59
2022-11-05T20:26:54.056Z,101200.81
2022-11-05T20:29:22.565Z,101202.56
2022-11-05T20:31:50.801Z,101193.03
2022-11-05T20:34:18.495Z,101200.84
2022-11-05T20:36:47.595Z,101202.59
2022-11-05T20:39:15.397Z,101207.81
2022-11-05T20:41:43.169Z,101199.16
2022-11-05T20:44:10.965Z,101201.75
2022-11-05T20:46:38.926Z,101199.13
2022-11-05T20:49:06.719Z,101212.16
2022-11-05T20:51:34.408Z,101218.25
2022-11-05T20:54:04.163Z,101204.34
2022-11-05T20:56:35.352Z,101212.19
2022-11-05T20:59:03.711Z,101210.44
2022-11-05T21:01:33.857Z,101205.22
2022-11-05T21:04:02.958Z,101204.38
2022-11-05T21:06:31.100Z,101201.78
2022-11-05T21:08:58.915Z,101198.31
2022-11-05T21:11:27.970Z,101191.34
2022-11-05T21:13:55.982Z,101184.41
2022-11-05T21:16:23.668Z,101189.63
2022-11-05T21:18:51.375Z,101194.84
2022-11-05T21:21:21.483Z,101194.84
2022-11-05T21:23:49.250Z,101198.31
2022-11-05T21:26:18.569Z,101196.59
2022-11-05T21:28:47.692Z,101199.22
2022-11-05T21:31:15.416Z,101200.94
2022-11-05T21:33:43.151Z,101205.28
2022-11-05T21:36:12.786Z,101200.91
2022-11-05T21:38:41.340Z,101198.31
2022-11-05T21:41:10.851Z,101200.03
2022-11-05T21:43:40.478Z,101204.38
2022-11-05T21:46:12.978Z,101198.31
2022-11-05T21:48:41.000Z,101213.09
2022-11-05T21:51:28.119Z,101202.66
2022-11-05T21:54:13.375Z,101201.81
2022-11-05T21:56:58.972Z,101194.00
2022-11-05T21:59:44.789Z,101191.38
2022-11-05T22:02:14.380Z,101193.09
2022-11-05T22:04:44.204Z,101194.00
2022-11-05T22:07:14.295Z,101190.50
2022-11-05T22:09:42.147Z,101183.56
2022-11-05T22:12:10.276Z,101186.16
2022-11-05T22:14:38.319Z,101176.59
2022-11-05T22:17:06.630Z,101169.66
2022-11-05T22:19:36.432Z,101172.28
2022-11-05T22:22:05.228Z,101156.66
2022-11-05T22:24:33.799Z,101152.28
2022-11-05T22:27:04.287Z,101144.50
2022-11-05T22:29:32.019Z,101134.06
2022-11-05T22:32:00.044Z,101145.38
2022-11-05T22:34:28.052Z,101141.00
2022-11-05T22:36:57.361Z,101134.06
2022-11-05T22:39:25.079Z,101135.81
2022-11-05T22:41:54.972Z,101134.97
2022-11-05T22:44:23.323Z,101124.53
2022-11-05T22:46:51.161Z,101128.00
2022-11-05T22:49:19.070Z,101129.75
2022-11-05T22:51:46.906Z,101117.56
2022-11-05T22:54:16.033Z,101121.94
2022-11-05T22:56:44.952Z,101119.31
2022-11-05T22:59:15.170Z,101113.25
2022-11-05T23:01:43.818Z,101118.44
2022-11-05T23:04:12.976Z,101109.75
2022-11-05T23:06:58.519Z,101100.22
2022-11-05T23:09:47.562Z,101102.81
2022-11-05T23:12:27.090Z,101101.09
2022-11-05T23:14:56.347Z,101098.50
2022-11-05T23:17:41.672Z,101096.75
2022-11-05T23:20:36.027Z,101093.28
2022-11-05T23:23:21.838Z,101099.38
2022-11-05T23:25:51.017Z,101097.63
2022-11-05T23:28:21.180Z,101091.56
2022-11-05T23:31:06.694Z,101097.59
2022-11-05T23:33:36.971Z,101095.00
2022-11-05T23:36:22.784Z,101100.22
2022-11-05T23:38:50.637Z,101096.72
2022-11-05T23:41:37.203Z,101097.63
2022-11-05T23:44:22.790Z,101098.50
2022-11-05T23:47:08.022Z,101097.63
2022-11-05T23:49:35.758Z,101097.59
2022-11-05T23:52:03.719Z,101093.28
2022-11-05T23:54:31.522Z,101081.13
2022-11-05T23:57:00.566Z,101082.88
2022-11-05T23:59:28.286Z,101075.94
